Time;durP1;ratioP1;P1;durP2;ratioP2;P2;SDS_P1;SDS_P2;PMS_P1;PMS_P2;Temp;Humidity;BMP_temperature;BMP_pressure;BME280_temperature;BME280_humidity;BME280_pressure;Samples;Min_cycle;Max_cycle;Signal;HPM_P1;HPM_P2
2023/03/22 00:00:55;;;;;;;12.50;6.78;;;10.30;1.00;;;;;;5064497;28;20056;-87
2023/03/22 00:03:22;;;;;;;12.77;6.35;;;10.30;1.00;;;;;;5066103;28;20045;-88
2023/03/22 00:05:48;;;;;;;13.93;7.30;;;10.20;1.00;;;;;;5069488;28;20048;-88
2023/03/22 00:08:14;;;;;;;13.68;6.72;;;10.30;1.00;;;;;;5055700;28;20765;-87
2023/03/22 00:10:40;;;;;;;13.95;6.38;;;10.20;1.00;;;;;;5051351;28;20049;-88
2023/03/22 00:13:08;;;;;;;16.02;6.10;;;10.30;1.00;;;;;;5083696;28;20048;-88
2023/03/22 00:15:35;;;;;;;14.98;6.88;;;10.20;1.00;;;;;;5053551;28;20205;-88
2023/03/22 00:18:04;;;;;;;13.88;5.78;;;10.20;1.00;;;;;;5041995;28;20054;-87
2023/03/22 00:20:36;;;;;;;14.77;6.55;;;10.10;1.00;;;;;;5073456;28;20044;-89
2023/03/22 00:23:02;;;;;;;12.70;5.95;;;10.10;1.00;;;;;;5052083;28;20110;-89
2023/03/22 00:25:28;;;;;;;11.32;6.32;;;10.10;1.00;;;;;;5052213;28;21279;-89
2023/03/22 00:27:54;;;;;;;15.93;6.78;;;10.00;1.00;;;;;;5053947;28;20493;-88
2023/03/22 00:30:19;;;;;;;16.13;6.78;;;10.00;1.00;;;;;;5060576;28;20154;-88
2023/03/22 00:32:45;;;;;;;17.75;6.30;;;9.90;1.00;;;;;;5075664;28;20411;-88
2023/03/22 00:35:11;;;;;;;12.13;6.10;;;9.90;1.00;;;;;;5069450;28;20722;-89
2023/03/22 00:37:37;;;;;;;9.63;5.20;;;9.90;1.00;;;;;;5048214;28;20050;-89
2023/03/22 00:40:09;;;;;;;14.88;6.72;;;9.90;1.00;;;;;;5039450;28;20087;-88
2023/03/22 00:42:36;;;;;;;12.85;5.22;;;9.90;1.00;;;;;;5052019;28;20059;-89
2023/03/22 00:45:03;;;;;;;12.20;5.18;;;9.80;1.00;;;;;;5055156;28;20051;-89
2023/03/22 00:47:29;;;;;;;10.82;5.88;;;9.80;1.00;;;;;;5033563;28;20065;-90
2023/03/22 00:49:55;;;;;;;12.50;5.22;;;9.80;1.00;;;;;;5070149;28;20055;-89
2023/03/22 00:52:21;;;;;;;12.00;4.35;;;9.80;1.00;;;;;;5064427;28;20044;-90
2023/03/22 00:54:46;;;;;;;11.82;4.82;;;9.70;1.00;;;;;;5060791;28;20041;-90
2023/03/22 00:57:13;;;;;;;15.02;4.78;;;9.70;1.00;;;;;;5063012;28;20075;-90
2023/03/22 00:59:41;;;;;;;19.27;4.88;;;9.80;1.00;;;;;;5045401;28;20083;-88
2023/03/22 01:02:08;;;;;;;13.43;4.50;;;9.70;1.00;;;;;;5042475;28;20099;-88
2023/03/22 01:04:35;;;;;;;10.88;4.30;;;9.70;1.00;;;;;;5044758;28;20114;-87
2023/03/22 01:07:04;;;;;;;14.75;4.57;;;9.70;1.00;;;;;;5053642;28;20081;-90
2023/03/22 01:09:32;;;;;;;9.70;4.68;;;9.70;1.00;;;;;;5042747;28;20401;-89
2023/03/22 01:12:00;;;;;;;11.43;4.28;;;9.70;1.00;;;;;;5060344;28;20041;-90
2023/03/22 01:14:26;;;;;;;12.50;4.38;;;9.70;1.00;;;;;;5069122;28;20124;-89
2023/03/22 01:16:56;;;;;;;8.63;3.65;;;9.70;1.00;;;;;;5065682;28;20051;-90
2023/03/22 01:19:26;;;;;;;12.15;3.90;;;9.60;1.00;;;;;;5051288;28;20052;-89
2023/03/22 01:21:52;;;;;;;8.43;3.88;;;9.60;1.00;;;;;;5079682;28;20047;-89
2023/03/22 01:24:18;;;;;;;8.38;3.30;;;9.60;1.00;;;;;;5036780;28;20119;-90
2023/03/22 01:26:44;;;;;;;11.00;3.88;;;9.60;1.00;;;;;;5077453;28;20112;-89
2023/03/22 01:29:10;;;;;;;10.32;3.00;;;9.60;1.00;;;;;;5032499;28;20056;-90
2023/03/22 01:31:36;;;;;;;8.63;3.40;;;9.60;1.00;;;;;;5058036;28;20500;-89
2023/03/22 01:34:02;;;;;;;10.77;3.38;;;9.60;1.00;;;;;;5036256;28;20079;-90
2023/03/22 01:36:28;;;;;;;10.63;2.75;;;9.60;1.00;;;;;;5074755;28;20041;-90
2023/03/22 01:38:54;;;;;;;11.40;3.15;;;9.60;1.00;;;;;;5059867;28;20141;-89
2023/03/22 01:41:20;;;;;;;10.00;2.67;;;9.60;1.00;;;;;;5053490;28;20040;-90
2023/03/22 01:44:13;;;;;;;8.68;3.03;;;9.50;1.00;;;;;;5034689;28;20051;-90
2023/03/22 01:46:40;;;;;;;8.73;3.22;;;9.50;1.00;;;;;;5058802;28;20146;-91
2023/03/22 01:49:10;;;;;;;9.43;2.97;;;9.50;1.00;;;;;;5052964;28;20067;-90
2023/03/22 01:51:37;;;;;;;10.63;3.13;;;9.50;1.00;;;;;;5055572;28;20110;-88
2023/03/22 01:54:11;;;;;;;7.85;2.65;;;9.50;1.00;;;;;;5045397;28;20120;-90
2023/03/22 01:56:40;;;;;;;8.43;2.55;;;9.40;1.00;;;;;;5065292;28;20052;-89
2023/03/22 01:59:09;;;;;;;8.77;2.60;;;9.40;1.00;;;;;;5053251;28;20073;-90
2023/03/22 02:01:35;;;;;;;8.10;2.60;;;9.40;1.00;;;;;;5067820;28;20047;-89
2023/03/22 02:04:07;;;;;;;10.52;2.65;;;9.40;1.00;;;;;;5073154;28;20495;-90
2023/03/22 02:06:36;;;;;;;8.02;2.83;;;9.40;1.00;;;;;;5051056;28;20493;-90
2023/03/22 02:09:15;;;;;;;10.75;3.03;;;9.40;1.00;;;;;;5063446;28;20092;-89
2023/03/22 02:11:47;;;;;;;9.25;2.63;;;9.40;1.00;;;;;;5077946;28;20043;-89
2023/03/22 02:14:41;;;;;;;13.45;2.80;;;9.40;1.00;;;;;;5079295;28;20040;-89
2023/03/22 02:17:45;;;;;;;10.93;2.58;;;9.40;1.00;;;;;;5059449;28;20047;-86
2023/03/22 02:20:11;;;;;;;9.05;2.50;;;9.40;1.00;;;;;;5054598;28;20055;-90
2023/03/22 02:23:10;;;;;;;15.27;2.78;;;9.40;1.00;;;;;;5049818;28;20051;-88
2023/03/22 02:25:58;;;;;;;10.93;2.78;;;9.40;1.00;;;;;;5066912;28;20052;-88
2023/03/22 02:29:01;;;;;;;12.15;2.60;;;9.40;1.00;;;;;;5050516;28;20079;-89
2023/03/22 02:31:32;;;;;;;6.20;2.50;;;9.40;1.00;;;;;;5014803;28;20063;-87
2023/03/22 02:34:16;;;;;;;11.15;2.92;;;9.40;1.00;;;;;;5051061;28;20055;-88
2023/03/22 02:36:57;;;;;;;11.73;2.78;;;9.30;1.00;;;;;;5067760;28;20040;-89
2023/03/22 02:39:35;;;;;;;10.73;4.15;;;9.30;1.00;;;;;;5060950;28;20054;-87
2023/03/22 02:42:09;;;;;;;12.98;2.72;;;9.40;1.00;;;;;;5074045;28;20044;-89
2023/03/22 02:45:07;;;;;;;10.68;2.78;;;9.40;1.00;;;;;;5066040;28;20040;-89
2023/03/22 02:47:42;;;;;;;8.68;3.20;;;9.40;1.00;;;;;;5048891;28;20060;-90
2023/03/22 02:50:27;;;;;;;9.00;2.75;;;9.40;1.00;;;;;;5056010;28;20113;-89
2023/03/22 02:53:29;;;;;;;9.13;2.85;;;9.40;1.00;;;;;;5085125;28;20040;-90
2023/03/22 02:56:03;;;;;;;12.45;2.75;;;9.40;1.00;;;;;;5068381;28;20413;-89
2023/03/22 02:58:38;;;;;;;7.82;3.17;;;9.40;1.00;;;;;;5079996;28;20076;-88
2023/03/22 03:01:08;;;;;;;6.70;3.10;;;9.40;1.00;;;;;;5086575;28;20062;-88
2023/03/22 03:03:36;;;;;;;11.23;3.13;;;9.30;1.00;;;;;;5066911;28;20048;-89
2023/03/22 03:06:13;;;;;;;8.07;2.80;;;9.40;1.00;;;;;;5073184;28;20545;-88
2023/03/22 03:08:41;;;;;;;13.25;2.90;;;9.30;1.00;;;;;;5068631;28;20085;-89
2023/03/22 03:11:08;;;;;;;10.82;2.85;;;9.30;1.00;;;;;;5052807;28;20064;-89
2023/03/22 03:13:34;;;;;;;8.65;2.95;;;9.40;1.00;;;;;;5068863;28;20491;-88
2023/03/22 03:16:02;;;;;;;11.05;3.50;;;9.40;1.00;;;;;;5054674;28;20058;-87
2023/03/22 03:18:40;;;;;;;9.15;2.75;;;9.40;1.00;;;;;;5077025;28;20039;-87
2023/03/22 03:21:31;;;;;;;10.00;3.20;;;9.40;1.00;;;;;;5068751;28;20035;-89
2023/03/22 03:24:09;;;;;;;15.20;3.42;;;9.40;1.00;;;;;;5068880;28;20116;-87
2023/03/22 03:26:49;;;;;;;8.70;3.15;;;9.40;1.00;;;;;;5046965;28;20044;-88
2023/03/22 03:29:23;;;;;;;9.50;2.80;;;9.40;1.00;;;;;;5058973;28;20054;-89
2023/03/22 03:32:14;;;;;;;7.68;2.78;;;9.40;1.00;;;;;;5053642;28;20044;-89
2023/03/22 03:34:48;;;;;;;10.20;3.30;;;9.40;1.00;;;;;;5060667;28;20048;-88
2023/03/22 03:37:21;;;;;;;15.27;3.40;;;9.30;1.00;;;;;;5075894;28;20123;-89
2023/03/22 03:39:57;;;;;;;13.35;3.00;;;9.30;1.00;;;;;;5072896;28;20489;-88
2023/03/22 03:42:26;;;;;;;8.48;3.08;;;9.30;1.00;;;;;;5054356;28;20040;-88
2023/03/22 03:44:51;;;;;;;13.95;3.35;;;9.30;1.00;;;;;;5068901;28;20067;-89
2023/03/22 03:47:18;;;;;;;9.18;2.80;;;9.30;1.00;;;;;;5061017;28;20402;-89
2023/03/22 03:49:45;;;;;;;11.95;3.35;;;9.30;1.00;;;;;;5072975;28;20048;-88
2023/03/22 03:52:12;;;;;;;11.43;3.20;;;9.30;1.00;;;;;;5056049;28;20971;-89
2023/03/22 03:54:37;;;;;;;10.63;3.80;;;9.30;1.00;;;;;;5035165;28;20135;-89
2023/03/22 03:57:03;;;;;;;10.48;2.97;;;9.20;1.00;;;;;;5055072;28;20135;-88
2023/03/22 03:59:29;;;;;;;9.98;3.30;;;9.20;1.00;;;;;;5054818;28;20051;-89
2023/03/22 04:01:54;;;;;;;10.77;3.53;;;9.20;1.00;;;;;;5054815;28;20090;-87
2023/03/22 04:04:26;;;;;;;10.35;3.17;;;9.20;1.00;;;;;;5041664;28;20047;-88
2023/03/22 04:06:57;;;;;;;9.55;2.90;;;9.30;1.00;;;;;;5078958;28;20097;-89
2023/03/22 04:09:28;;;;;;;9.70;3.75;;;9.30;1.00;;;;;;5056170;28;20513;-88
2023/03/22 04:11:55;;;;;;;8.00;2.97;;;9.20;1.00;;;;;;5049713;28;20229;-89
2023/03/22 04:14:21;;;;;;;9.23;3.08;;;9.30;1.00;;;;;;5055622;28;20074;-90
2023/03/22 04:16:47;;;;;;;9.50;2.97;;;9.30;1.00;;;;;;5041012;28;20486;-89
2023/03/22 04:19:13;;;;;;;9.30;3.92;;;9.30;1.00;;;;;;5058216;28;20101;-88
2023/03/22 04:21:39;;;;;;;11.48;3.45;;;9.20;1.00;;;;;;5055455;28;20044;-89
2023/03/22 04:24:06;;;;;;;7.97;3.10;;;9.20;1.00;;;;;;5054813;28;20047;-90
2023/03/22 04:26:32;;;;;;;8.98;3.38;;;9.20;1.00;;;;;;5080347;28;20040;-89
2023/03/22 04:28:58;;;;;;;8.75;3.47;;;9.20;1.00;;;;;;5084851;28;20071;-90
2023/03/22 04:31:27;;;;;;;10.15;3.80;;;9.30;1.00;;;;;;5062085;28;20079;-90
2023/03/22 04:33:55;;;;;;;10.13;3.45;;;9.20;1.00;;;;;;5062106;28;20058;-90
2023/03/22 04:36:23;;;;;;;16.70;4.93;;;9.20;1.00;;;;;;5083764;28;20036;-90
2023/03/22 04:38:49;;;;;;;13.00;4.47;;;9.20;1.00;;;;;;5058905;28;20093;-89
2023/03/22 04:41:15;;;;;;;10.60;3.83;;;9.20;1.00;;;;;;5064901;28;20397;-89
2023/03/22 04:43:41;;;;;;;20.75;5.28;;;9.20;1.00;;;;;;5035604;28;20045;-88
2023/03/22 04:46:08;;;;;;;14.32;5.18;;;9.30;1.00;;;;;;5060522;28;20045;-90
2023/03/22 04:48:43;;;;;;;9.07;4.65;;;9.30;1.00;;;;;;5050439;28;20098;-89
2023/03/22 04:51:10;;;;;;;14.90;5.53;;;9.30;1.00;;;;;;5062663;28;20083;-90
2023/03/22 04:53:39;;;;;;;13.25;5.20;;;9.30;1.00;;;;;;5041641;28;20075;-86
2023/03/22 04:56:07;;;;;;;13.63;6.22;;;9.30;1.00;;;;;;5050242;28;20136;-89
2023/03/22 04:58:35;;;;;;;14.07;7.60;;;9.30;1.00;;;;;;5056410;28;20048;-89
2023/03/22 05:01:01;;;;;;;14.05;6.22;;;9.40;1.00;;;;;;5031919;28;20043;-89
2023/03/22 05:03:27;;;;;;;11.73;7.38;;;9.40;1.00;;;;;;5041478;28;20130;-88
2023/03/22 05:05:56;;;;;;;15.57;7.78;;;9.30;1.00;;;;;;5080805;28;20119;-89
2023/03/22 05:08:26;;;;;;;13.52;8.18;;;9.40;1.00;;;;;;5049261;28;20090;-89
2023/03/22 05:10:53;;;;;;;15.75;8.13;;;9.40;1.00;;;;;;5063617;28;20478;-89
2023/03/22 05:13:20;;;;;;;17.73;9.00;;;9.40;1.00;;;;;;5048937;28;20047;-90
2023/03/22 05:15:48;;;;;;;21.23;10.13;;;9.50;1.00;;;;;;5047505;28;20140;-90
2023/03/22 05:18:23;;;;;;;19.38;8.90;;;9.50;1.00;;;;;;5066247;28;20063;-89
2023/03/22 05:20:49;;;;;;;17.92;10.60;;;9.50;1.00;;;;;;5052850;28;20039;-90
2023/03/22 05:23:20;;;;;;;17.60;10.75;;;9.50;1.00;;;;;;5040433;28;20056;-89
2023/03/22 05:25:50;;;;;;;19.08;10.00;;;9.60;1.00;;;;;;5064727;28;20044;-87
2023/03/22 05:28:21;;;;;;;20.08;11.27;;;9.60;1.00;;;;;;5044543;28;20139;-87
2023/03/22 05:30:48;;;;;;;20.92;11.07;;;9.70;1.00;;;;;;5047848;28;20071;-88
2023/03/22 05:33:15;;;;;;;19.67;10.73;;;9.70;1.00;;;;;;5044462;28;20509;-90
2023/03/22 05:35:41;;;;;;;22.88;11.50;;;9.80;1.00;;;;;;5049647;28;20044;-88
2023/03/22 05:38:08;;;;;;;20.10;12.50;;;9.80;1.00;;;;;;5032833;28;20051;-88
2023/03/22 05:40:34;;;;;;;22.38;10.52;;;9.80;1.00;;;;;;5022589;28;20051;-88
2023/03/22 05:42:59;;;;;;;20.75;11.10;;;9.80;1.00;;;;;;5061591;28;20572;-88
2023/03/22 05:45:26;;;;;;;21.77;11.20;;;9.80;1.00;;;;;;5030858;28;20120;-90
2023/03/22 05:47:52;;;;;;;22.15;11.27;;;9.80;1.00;;;;;;5056139;28;20055;-88
2023/03/22 05:50:20;;;;;;;19.98;11.38;;;9.80;1.00;;;;;;5059191;28;20048;-88
2023/03/22 05:52:47;;;;;;;25.23;11.20;;;9.80;1.00;;;;;;5054166;28;20131;-88
2023/03/22 05:55:16;;;;;;;24.67;11.85;;;9.80;1.00;;;;;;5034351;28;20036;-88
2023/03/22 05:57:43;;;;;;;20.95;11.07;;;9.80;1.00;;;;;;5057551;28;20040;-88
2023/03/22 06:00:13;;;;;;;20.90;11.75;;;9.80;1.00;;;;;;5058083;28;20056;-88
2023/03/22 06:02:44;;;;;;;18.85;10.63;;;9.80;1.00;;;;;;5062994;28;20052;-91
2023/03/22 06:05:11;;;;;;;16.02;10.90;;;9.80;1.00;;;;;;5059853;28;20497;-88
2023/03/22 06:07:37;;;;;;;19.65;11.60;;;9.80;1.00;;;;;;5059011;28;20052;-87
2023/03/22 06:10:05;;;;;;;18.90;10.85;;;9.80;1.00;;;;;;5069807;28;20055;-87
2023/03/22 06:12:31;;;;;;;20.20;10.88;;;9.70;1.00;;;;;;5043954;28;20059;-87
2023/03/22 06:14:57;;;;;;;19.08;10.93;;;9.70;1.00;;;;;;5065049;28;21183;-88
2023/03/22 06:17:23;;;;;;;20.83;11.65;;;9.70;1.00;;;;;;5055185;28;20048;-87
2023/03/22 06:19:49;;;;;;;19.52;11.43;;;9.70;1.00;;;;;;5053250;28;20040;-84
2023/03/22 06:22:16;;;;;;;18.33;10.93;;;9.70;1.00;;;;;;5075824;28;20047;-86
2023/03/22 06:24:41;;;;;;;20.05;11.13;;;9.80;1.00;;;;;;5071364;28;20101;-87
2023/03/22 06:27:08;;;;;;;19.58;10.48;;;9.80;1.00;;;;;;5054258;28;20048;-85
2023/03/22 06:29:34;;;;;;;21.00;12.20;;;9.90;1.00;;;;;;5073796;28;20083;-87
2023/03/22 06:32:00;;;;;;;20.25;11.40;;;9.90;1.00;;;;;;5057800;28;20087;-88
2023/03/22 06:34:26;;;;;;;17.92;12.05;;;10.00;1.00;;;;;;5066872;28;20082;-86
2023/03/22 06:36:52;;;;;;;19.35;11.60;;;10.00;1.00;;;;;;5069638;28;20036;-86
2023/03/22 06:39:19;;;;;;;18.80;10.80;;;10.10;1.00;;;;;;5080703;28;20035;-89
2023/03/22 06:41:45;;;;;;;18.42;11.25;;;10.10;1.00;;;;;;5029537;28;20066;-89
2023/03/22 06:44:10;;;;;;;18.45;10.95;;;10.10;1.00;;;;;;5065607;28;20560;-87
2023/03/22 06:46:36;;;;;;;20.48;10.88;;;10.10;1.00;;;;;;5073089;28;20051;-83
2023/03/22 06:49:02;;;;;;;24.40;11.05;;;10.10;1.00;;;;;;5056905;28;20082;-84
2023/03/22 06:51:28;;;;;;;18.88;10.73;;;10.10;1.00;;;;;;5040435;28;20451;-85
2023/03/22 06:53:54;;;;;;;19.83;10.60;;;10.10;1.00;;;;;;5068568;28;20055;-84
2023/03/22 06:56:20;;;;;;;19.48;10.65;;;10.20;1.00;;;;;;5072672;28;20048;-83
2023/03/22 06:58:45;;;;;;;21.48;10.63;;;10.20;1.00;;;;;;5048734;28;20397;-84
2023/03/22 07:01:11;;;;;;;15.73;9.80;;;10.30;1.00;;;;;;5045792;28;20032;-85
2023/03/22 07:03:37;;;;;;;16.75;9.55;;;10.50;1.00;;;;;;5072290;28;20044;-83
2023/03/22 07:06:04;;;;;;;18.15;9.15;;;10.60;1.00;;;;;;5041905;28;20051;-83
2023/03/22 07:08:30;;;;;;;16.92;9.88;;;10.60;1.00;;;;;;5058802;28;20055;-84
2023/03/22 07:10:56;;;;;;;15.82;8.80;;;10.70;1.00;;;;;;5088575;28;20044;-84
2023/03/22 07:13:22;;;;;;;17.17;8.95;;;10.80;1.00;;;;;;5054638;28;20044;-84
2023/03/22 07:15:48;;;;;;;16.42;9.02;;;10.80;1.00;;;;;;5088165;28;20062;-84
2023/03/22 07:18:13;;;;;;;15.00;8.65;;;10.90;1.00;;;;;;5086668;28;20092;-84
2023/03/22 07:20:41;;;;;;;12.43;8.20;;;11.00;1.00;;;;;;5056532;28;20048;-83
2023/03/22 07:23:09;;;;;;;13.20;8.43;;;11.20;1.00;;;;;;5072554;28;20093;-84
2023/03/22 07:25:35;;;;;;;13.50;8.15;;;11.20;1.00;;;;;;5071770;28;20097;-84
2023/03/22 07:28:00;;;;;;;16.98;8.60;;;11.30;1.00;;;;;;5073880;28;20135;-83
2023/03/22 07:30:26;;;;;;;15.38;7.88;;;11.20;99.90;;;;;;5072923;28;20104;-84
2023/03/22 07:32:52;;;;;;;14.18;7.68;;;11.20;99.90;;;;;;5073715;28;20509;-83
2023/03/22 07:35:18;;;;;;;13.52;7.60;;;11.20;99.90;;;;;;5054789;28;20076;-83
2023/03/22 07:37:47;;;;;;;13.30;7.47;;;11.30;99.90;;;;;;5057158;28;20047;-83
2023/03/22 07:40:14;;;;;;;11.23;7.20;;;11.40;99.90;;;;;;5055732;28;20055;-83
2023/03/22 07:42:39;;;;;;;12.00;7.03;;;11.60;99.90;;;;;;5056945;28;20048;-83
2023/03/22 07:45:06;;;;;;;15.30;7.28;;;11.50;99.90;;;;;;5070099;28;20051;-82
2023/03/22 07:47:31;;;;;;;17.23;7.32;;;11.50;99.90;;;;;;5049710;28;20059;-84
2023/03/22 07:49:57;;;;;;;12.77;7.03;;;11.40;99.90;;;;;;5049154;28;20052;-84
2023/03/22 07:52:23;;;;;;;14.02;7.68;;;11.40;99.90;;;;;;5052420;28;20063;-85
2023/03/22 07:54:48;;;;;;;12.10;6.70;;;11.40;99.90;;;;;;5073776;28;20100;-84
2023/03/22 07:57:15;;;;;;;15.50;6.70;;;11.40;99.90;;;;;;5089802;28;20056;-84
2023/03/22 07:59:43;;;;;;;11.48;6.95;;;11.40;99.90;;;;;;5040242;28;20047;-84
2023/03/22 08:02:10;;;;;;;10.95;6.45;;;11.30;99.90;;;;;;5065603;28;20048;-84
2023/03/22 08:04:36;;;;;;;14.35;6.70;;;11.30;99.90;;;;;;5080215;28;20127;-84
2023/03/22 08:07:01;;;;;;;14.90;6.90;;;11.20;99.90;;;;;;5040338;28;20036;-84
2023/03/22 08:09:27;;;;;;;9.45;5.60;;;11.20;99.90;;;;;;5061658;28;20036;-84
2023/03/22 08:11:53;;;;;;;14.10;5.65;;;11.20;99.90;;;;;;5060609;28;20148;-84
2023/03/22 08:14:19;;;;;;;13.23;6.10;;;11.20;99.90;;;;;;5051951;28;20044;-83
2023/03/22 08:16:45;;;;;;;12.55;5.20;;;11.20;99.90;;;;;;5043700;28;20481;-84
2023/03/22 08:19:11;;;;;;;10.00;5.40;;;11.30;99.90;;;;;;5057971;28;20110;-83
2023/03/22 08:21:37;;;;;;;10.32;5.25;;;11.50;99.90;;;;;;5071672;28;20135;-85
2023/03/22 08:24:04;;;;;;;9.90;5.53;;;11.70;99.90;;;;;;5058964;28;20053;-84
2023/03/22 08:26:30;;;;;;;9.63;4.68;;;11.80;99.90;;;;;;5059354;28;20577;-84
2023/03/22 08:28:56;;;;;;;9.63;4.88;;;11.80;99.90;;;;;;5042385;28;20045;-84
2023/03/22 08:31:22;;;;;;;9.02;4.90;;;11.80;99.90;;;;;;5088641;28;20039;-83
2023/03/22 08:33:48;;;;;;;10.18;4.70;;;11.70;99.90;;;;;;5037725;28;20059;-85
2023/03/22 08:36:19;;;;;;;9.98;4.15;;;11.50;99.90;;;;;;5055200;28;20052;-84
2023/03/22 08:38:44;;;;;;;10.07;4.63;;;11.50;99.90;;;;;;5071282;28;20589;-83
2023/03/22 08:41:12;;;;;;;10.85;5.18;;;11.40;99.90;;;;;;5062179;28;20119;-83
2023/03/22 08:43:39;;;;;;;9.27;4.45;;;11.40;99.90;;;;;;5050799;28;20048;-84
2023/03/22 08:46:04;;;;;;;9.55;4.10;;;11.40;99.90;;;;;;5060937;28;20097;-85
2023/03/22 08:48:30;;;;;;;11.63;4.50;;;11.50;99.90;;;;;;5068880;28;20060;-84
2023/03/22 08:50:57;;;;;;;5.78;3.72;;;11.60;99.90;;;;;;5059753;28;20073;-84
2023/03/22 08:53:23;;;;;;;7.72;4.40;;;11.70;99.90;;;;;;5040878;28;20040;-84
2023/03/22 08:55:49;;;;;;;9.90;4.53;;;11.80;99.90;;;;;;5055136;28;20105;-85
2023/03/22 08:58:18;;;;;;;9.48;4.35;;;11.90;99.90;;;;;;5054190;28;20193;-84
2023/03/22 09:00:45;;;;;;;11.00;4.45;;;12.10;99.90;;;;;;5055715;28;20048;-85
2023/03/22 09:03:10;;;;;;;15.85;4.72;;;12.20;99.60;;;;;;5071134;28;20078;-85
2023/03/22 09:05:36;;;;;;;8.90;4.00;;;12.20;99.90;;;;;;5055177;28;20040;-84
2023/03/22 09:08:04;;;;;;;8.05;4.10;;;12.30;99.90;;;;;;5071308;28;20465;-84
2023/03/22 09:10:30;;;;;;;9.23;3.90;;;12.40;94.50;;;;;;5088538;28;20078;-84
2023/03/22 09:12:56;;;;;;;9.35;4.50;;;12.60;86.90;;;;;;5037719;28;20071;-84
2023/03/22 09:15:21;;;;;;;10.95;3.97;;;12.70;24.70;;;;;;5041327;28;20548;-84
2023/03/22 09:17:47;;;;;;;9.90;4.53;;;12.70;40.40;;;;;;5058118;28;20048;-85
2023/03/22 09:20:13;;;;;;;11.02;3.63;;;12.80;1.00;;;;;;5055048;28;20048;-84
2023/03/22 09:22:39;;;;;;;8.70;3.90;;;12.70;1.00;;;;;;5057087;28;20082;-84
2023/03/22 09:25:06;;;;;;;10.10;3.97;;;12.70;1.00;;;;;;5038419;28;20084;-84
2023/03/22 09:27:32;;;;;;;9.13;3.50;;;12.70;1.00;;;;;;5053991;28;20048;-84
2023/03/22 09:29:59;;;;;;;16.15;4.97;;;12.70;1.00;;;;;;5054948;28;20084;-84
2023/03/22 09:32:25;;;;;;;9.38;3.70;;;12.60;1.00;;;;;;5053673;28;20044;-84
2023/03/22 09:34:51;;;;;;;12.77;3.40;;;12.60;1.00;;;;;;5071868;28;20043;-85
2023/03/22 09:37:18;;;;;;;14.50;3.65;;;12.70;1.00;;;;;;5050151;28;20474;-83
2023/03/22 09:39:44;;;;;;;7.18;3.28;;;12.60;1.00;;;;;;5071312;28;20087;-85
2023/03/22 09:42:31;;;;;;;10.80;4.00;;;12.70;1.00;;;;;;5068500;28;20079;-83
2023/03/22 09:44:57;;;;;;;;;;;12.60;1.00;;;;;;5066851;28;20049;-82
2023/03/22 09:47:42;;;;;;;14.55;3.75;;;12.50;1.00;;;;;;5074732;28;20007;-82
2023/03/22 09:50:20;;;;;;;12.52;3.78;;;12.50;1.00;;;;;;5056702;28;20412;-83
2023/03/22 09:52:47;;;;;;;10.60;3.90;;;12.40;1.00;;;;;;5056773;28;20201;-83
2023/03/22 09:55:42;;;;;;;9.80;3.67;;;12.30;10.80;;;;;;5072102;28;20052;-83
2023/03/22 09:58:10;;;;;;;12.57;3.00;;;12.20;46.20;;;;;;5071710;28;20098;-83
2023/03/22 10:00:44;;;;;;;8.55;2.90;;;11.90;77.30;;;;;;5047392;28;20130;-83
2023/03/22 10:03:19;;;;;;;10.43;4.13;;;11.60;99.90;;;;;;5058998;28;20051;-83
2023/03/22 10:06:03;;;;;;;9.98;3.35;;;11.50;99.90;;;;;;5074859;28;20056;-83
2023/03/22 10:08:38;;;;;;;9.18;3.40;;;11.30;99.90;;;;;;5056758;28;20134;-83
2023/03/22 10:11:13;;;;;;;13.63;3.88;;;11.20;99.90;;;;;;5044976;28;20494;-83
2023/03/22 10:13:50;;;;;;;14.23;3.90;;;11.00;99.90;;;;;;5074489;28;20047;-83
2023/03/22 10:16:32;;;;;;;10.80;4.25;;;11.10;99.90;;;;;;5057475;28;20052;-83
2023/03/22 10:19:12;;;;;;;6.68;2.70;;;11.00;99.90;;;;;;5057583;28;20048;-82
2023/03/22 10:21:38;;;;;;;9.95;4.15;;;11.00;99.90;;;;;;5062890;28;20040;-83
2023/03/22 10:24:19;;;;;;;11.90;3.60;;;11.00;99.90;;;;;;5073725;28;20485;-83
2023/03/22 10:26:46;;;;;;;10.55;3.25;;;10.90;99.90;;;;;;5058351;28;20213;-83
2023/03/22 10:29:37;;;;;;;16.38;3.92;;;10.90;99.90;;;;;;5091161;28;20550;-83
2023/03/22 10:32:13;;;;;;;9.45;3.40;;;10.90;99.90;;;;;;5055660;28;20546;-83
2023/03/22 10:34:39;;;;;;;10.00;3.63;;;10.90;99.90;;;;;;5056774;28;20489;-83
2023/03/22 10:37:09;;;;;;;12.70;4.95;;;10.90;99.90;;;;;;5056981;28;20087;-83
2023/03/22 10:39:45;;;;;;;12.27;4.45;;;10.90;99.90;;;;;;5088742;28;20151;-84
2023/03/22 10:42:24;;;;;;;7.57;3.58;;;10.90;99.90;;;;;;5062771;28;20040;-83
2023/03/22 10:44:52;;;;;;;15.02;5.93;;;11.00;99.90;;;;;;5071207;28;20131;-83
2023/03/22 10:47:35;;;;;;;11.65;4.10;;;11.00;99.90;;;;;;5077506;28;20055;-84
2023/03/22 10:50:04;;;;;;;10.57;4.72;;;11.00;99.90;;;;;;5073994;28;20036;-83
2023/03/22 10:52:39;;;;;;;7.35;2.65;;;10.90;99.90;;;;;;5069811;28;20137;-82
2023/03/22 10:55:11;;;;;;;16.75;4.90;;;10.80;99.90;;;;;;5052253;28;20048;-83
2023/03/22 10:57:38;;;;;;;16.40;4.97;;;10.60;1.00;;;;;;5077560;28;20419;-83
2023/03/22 11:00:14;;;;;;;9.55;4.30;;;10.60;1.00;;;;;;5066886;28;20123;-82
2023/03/22 11:02:49;;;;;;;17.20;8.30;;;10.40;1.00;;;;;;5089960;28;20054;-82
2023/03/22 11:05:27;;;;;;;11.00;3.67;;;10.40;1.00;;;;;;5064656;28;20048;-82
2023/03/22 11:07:53;;;;;;;12.02;4.70;;;10.40;1.00;;;;;;5064683;28;20791;-82
2023/03/22 11:10:26;;;;;;;11.77;4.75;;;10.30;1.00;;;;;;5089214;28;20044;-82
2023/03/22 11:12:53;;;;;;;13.65;4.50;;;10.30;1.00;;;;;;5056478;28;20044;-82
2023/03/22 11:15:21;;;;;;;9.48;4.45;;;10.30;1.00;;;;;;5080677;28;20064;-82
2023/03/22 11:17:48;;;;;;;15.00;5.57;;;10.20;1.00;;;;;;5070604;28;20044;-82
2023/03/22 11:20:18;;;;;;;14.05;5.93;;;10.20;1.00;;;;;;5068084;28;20503;-82
2023/03/22 11:22:50;;;;;;;12.52;4.53;;;10.20;3.20;;;;;;5068559;28;20058;-82
2023/03/22 11:25:26;;;;;;;12.45;4.45;;;10.10;25.50;;;;;;5059819;28;20044;-81
2023/03/22 11:28:03;;;;;;;12.13;4.28;;;10.10;26.00;;;;;;5060715;28;20371;-81
2023/03/22 11:30:30;;;;;;;15.25;4.28;;;10.00;38.90;;;;;;5067049;28;20516;-82
2023/03/22 11:32:59;;;;;;;17.27;5.20;;;10.00;76.90;;;;;;5070251;28;20048;-82
2023/03/22 11:35:25;;;;;;;9.82;4.30;;;10.00;96.30;;;;;;5060371;28;20044;-82
2023/03/22 11:37:54;;;;;;;12.50;4.38;;;10.10;99.50;;;;;;5062105;28;20081;-82
2023/03/22 11:40:22;;;;;;;8.32;4.35;;;10.10;99.90;;;;;;5068637;28;20602;-83
2023/03/22 11:42:52;;;;;;;8.10;3.70;;;10.20;99.90;;;;;;5052939;28;20111;-83
2023/03/22 11:45:28;;;;;;;14.50;5.30;;;10.20;99.90;;;;;;5056060;28;20052;-83
2023/03/22 11:48:00;;;;;;;17.73;7.45;;;10.20;99.90;;;;;;5064054;28;20057;-83
2023/03/22 11:50:30;;;;;;;7.97;4.82;;;10.30;99.90;;;;;;5053533;28;20056;-83
2023/03/22 11:52:56;;;;;;;10.43;4.70;;;10.30;99.90;;;;;;5045301;28;20048;-82
2023/03/22 11:55:23;;;;;;;9.38;3.22;;;10.30;99.90;;;;;;5070639;28;20079;-82
2023/03/22 11:57:49;;;;;;;12.05;4.18;;;10.30;99.90;;;;;;5045124;28;20102;-82
2023/03/22 12:00:19;;;;;;;10.80;3.50;;;10.30;96.20;;;;;;5066054;28;20753;-82
2023/03/22 12:02:58;;;;;;;10.10;3.50;;;10.20;98.30;;;;;;5065102;28;20079;-83
2023/03/22 12:05:29;;;;;;;8.65;3.28;;;10.20;90.10;;;;;;5061029;28;20052;-83
2023/03/22 12:08:07;;;;;;;11.18;4.13;;;10.20;95.00;;;;;;5071544;28;20125;-83
2023/03/22 12:10:40;;;;;;;10.27;4.00;;;10.10;93.30;;;;;;5073312;28;20048;-83
2023/03/22 12:13:31;;;;;;;12.85;3.70;;;10.20;88.10;;;;;;5072204;28;20040;-82
2023/03/22 12:16:00;;;;;;;8.32;3.58;;;10.10;79.50;;;;;;5058670;28;20044;-83
2023/03/22 12:18:44;;;;;;;8.98;3.85;;;10.10;79.50;;;;;;5072953;28;20455;-83
2023/03/22 12:21:10;;;;;;;7.45;3.45;;;10.00;73.80;;;;;;5089529;28;20040;-83
2023/03/22 12:23:37;;;;;;;12.15;3.72;;;10.00;86.20;;;;;;5056279;28;20134;-83
2023/03/22 12:26:05;;;;;;;4.53;3.28;;;10.00;79.70;;;;;;5050339;28;20048;-84
2023/03/22 12:28:55;;;;;;;8.20;3.58;;;10.00;74.10;;;;;;5052576;28;20060;-83
2023/03/22 12:31:30;;;;;;;11.57;4.00;;;10.00;73.40;;;;;;5061849;28;20046;-82
2023/03/22 12:34:00;;;;;;;10.82;3.58;;;9.90;77.70;;;;;;5041450;28;20752;-83
2023/03/22 12:36:37;;;;;;;6.60;3.40;;;10.00;86.60;;;;;;5055857;28;20109;-83
2023/03/22 12:39:07;;;;;;;12.32;3.70;;;10.00;82.40;;;;;;5052598;28;20096;-83
2023/03/22 12:41:37;;;;;;;7.72;3.50;;;10.00;67.10;;;;;;5055835;28;20036;-82
2023/03/22 12:44:03;;;;;;;10.07;4.45;;;10.00;59.70;;;;;;5064500;28;20123;-83
2023/03/22 12:46:34;;;;;;;11.93;4.55;;;10.00;69.60;;;;;;5082328;28;20131;-82
2023/03/22 12:49:09;;;;;;;8.55;4.03;;;10.00;90.10;;;;;;5052156;28;20572;-84
2023/03/22 12:51:36;;;;;;;12.02;4.30;;;10.10;92.20;;;;;;5056005;28;20082;-83
2023/03/22 12:54:02;;;;;;;11.93;4.85;;;10.10;95.40;;;;;;5045700;28;20072;-83
2023/03/22 12:56:32;;;;;;;9.23;4.90;;;10.20;99.90;;;;;;5053873;28;20044;-83
2023/03/22 12:59:03;;;;;;;12.82;5.25;;;10.10;99.90;;;;;;5036825;28;20045;-83
2023/03/22 13:01:47;;;;;;;10.95;5.35;;;10.10;99.90;;;;;;5067753;28;20041;-83
2023/03/22 13:04:31;;;;;;;17.95;6.55;;;10.20;99.90;;;;;;5070605;28;20036;-83